createdAt,value
2022-10-11T03:52:43.925Z,7.60
2022-10-11T03:55:10.362Z,7.30
2022-10-11T03:57:36.799Z,6.45
2022-10-11T04:00:05.154Z,6.40
2022-10-11T04:02:33.730Z,7.10
2022-10-11T04:05:05.914Z,6.78
2022-10-11T04:07:33.266Z,7.00
2022-10-11T04:09:59.906Z,6.93
2022-10-11T04:12:26.338Z,6.63
2022-10-11T04:14:52.744Z,7.35
2022-10-11T04:17:19.150Z,6.75
2022-10-11T04:19:45.625Z,6.30
2022-10-11T04:22:12.037Z,7.07
2022-10-11T04:24:38.542Z,6.50
2022-10-11T04:27:04.965Z,6.53
2022-10-11T04:29:32.769Z,6.88
2022-10-11T04:31:59.613Z,5.97
2022-10-11T04:34:26.138Z,6.55
2022-10-11T04:36:52.545Z,6.43
2022-10-11T04:39:18.981Z,6.47
2022-10-11T04:41:45.402Z,6.20
2022-10-11T04:44:11.814Z,6.47
2022-10-11T04:46:38.233Z,6.63
2022-10-11T04:49:04.690Z,7.57
2022-10-11T04:51:31.550Z,6.10
2022-10-11T04:53:58.012Z,6.25
2022-10-11T04:56:24.504Z,7.23
2022-10-11T04:58:54.082Z,6.63
2022-10-11T05:01:21.266Z,6.30
2022-10-11T05:03:47.872Z,6.10
2022-10-11T05:06:14.462Z,6.65
2022-10-11T05:08:41.315Z,5.77
2022-10-11T05:11:10.655Z,6.10
2022-10-11T05:13:37.434Z,6.65
2022-10-11T05:16:09.622Z,6.70
2022-10-11T05:18:37.433Z,6.00
2022-10-11T05:21:05.673Z,7.00
2022-10-11T05:23:33.294Z,6.75
2022-10-11T05:26:00.087Z,6.32
2022-10-11T05:28:26.883Z,7.10
2022-10-11T05:30:53.807Z,7.18
2022-10-11T05:33:20.419Z,7.00
2022-10-11T05:35:47.255Z,7.18
2022-10-11T05:38:13.813Z,6.78
2022-10-11T05:40:40.543Z,6.63
2022-10-11T05:43:07.052Z,6.35
2022-10-11T05:45:36.835Z,7.10
2022-10-11T05:48:03.454Z,6.25
2022-10-11T05:50:30.142Z,7.63
2022-10-11T05:52:56.944Z,7.40
2022-10-11T05:55:23.365Z,6.95
2022-10-11T05:57:57.410Z,6.00
2022-10-11T06:00:24.321Z,6.90
2022-10-11T06:02:50.729Z,7.05
2022-10-11T06:05:17.281Z,6.65
2022-10-11T06:07:44.734Z,6.13
2022-10-11T06:10:11.474Z,6.53
2022-10-11T06:12:38.699Z,7.07
2022-10-11T06:15:06.340Z,6.60
2022-10-11T06:17:32.803Z,6.38
2022-10-11T06:19:59.289Z,6.63
2022-10-11T06:22:26.673Z,6.40
2022-10-11T06:24:53.101Z,7.15
2022-10-11T06:27:19.508Z,7.20
2022-10-11T06:29:45.927Z,7.28
2022-10-11T06:32:13.343Z,6.40
2022-10-11T06:34:48.838Z,6.80
2022-10-11T06:37:19.470Z,6.38
2022-10-11T06:39:46.926Z,6.20
2022-10-11T06:42:13.391Z,6.63
2022-10-11T06:44:39.955Z,6.72
2022-10-11T06:47:06.842Z,5.67
2022-10-11T06:49:34.050Z,5.80
2022-10-11T06:52:00.563Z,5.57
2022-10-11T06:54:27.174Z,6.32
2022-10-11T06:56:53.584Z,5.20
2022-10-11T06:59:21.291Z,6.17
2022-10-11T07:01:47.781Z,5.90
2022-10-11T07:04:14.237Z,5.55
2022-10-11T07:06:41.483Z,5.57
2022-10-11T07:09:08.489Z,5.43
2022-10-11T07:11:35.585Z,6.00
2022-10-11T07:14:05.731Z,5.57
2022-10-11T07:16:32.142Z,5.30
2022-10-11T07:19:00.908Z,5.22
2022-10-11T07:21:28.719Z,5.65
2022-10-11T07:23:55.290Z,6.37
2022-10-11T07:26:24.845Z,5.82
2022-10-11T07:28:51.606Z,5.65
2022-10-11T07:31:20.510Z,5.65
2022-10-11T07:33:47.069Z,5.57
2022-10-11T07:36:15.544Z,5.73
2022-10-11T07:38:44.553Z,6.30
2022-10-11T07:41:11.345Z,6.38
2022-10-11T07:43:39.592Z,5.95
2022-10-11T07:46:06.861Z,5.88
2022-10-11T07:48:34.985Z,6.07
2022-10-11T07:51:07.238Z,5.57
2022-10-11T07:53:51.760Z,5.72
2022-10-11T07:56:20.987Z,6.57
2022-10-11T07:58:52.551Z,5.97
2022-10-11T08:01:19.837Z,6.70
2022-10-11T08:03:46.658Z,6.75
2022-10-11T08:06:14.975Z,5.50
2022-10-11T08:08:41.887Z,6.07
2022-10-11T08:11:08.612Z,6.72
2022-10-11T08:13:36.589Z,6.70
2022-10-11T08:16:09.915Z,6.75
2022-10-11T08:18:36.357Z,6.60
2022-10-11T08:21:10.308Z,7.00
2022-10-11T08:23:37.149Z,6.90
2022-10-11T08:26:04.857Z,6.47
2022-10-11T08:28:33.447Z,7.38
2022-10-11T08:31:00.105Z,6.72
2022-10-11T08:33:26.829Z,6.40
2022-10-11T08:35:54.411Z,7.25
2022-10-11T08:38:21.510Z,6.40
2022-10-11T08:40:50.314Z,6.60
2022-10-11T08:43:51.938Z,7.13
2022-10-11T08:46:24.174Z,6.25
2022-10-11T08:48:51.196Z,6.72
2022-10-11T08:51:24.132Z,6.53
2022-10-11T08:54:07.131Z,6.70
2022-10-11T08:56:36.385Z,6.60
2022-10-11T08:59:11.227Z,7.30
2022-10-11T09:01:43.497Z,6.60
2022-10-11T09:04:15.210Z,6.63
2022-10-11T09:07:04.593Z,6.53
2022-10-11T09:09:56.218Z,6.10
2022-10-11T09:12:45.309Z,6.75
2022-10-11T09:15:30.607Z,7.13
2022-10-11T09:18:32.502Z,7.00
2022-10-11T09:21:01.909Z,8.00
2022-10-11T09:24:16.727Z,7.35
2022-10-11T09:26:46.011Z,8.30
2022-10-11T09:29:38.170Z,7.90
2022-10-11T09:32:15.333Z,9.50
2022-10-11T09:34:45.248Z,10.57
2022-10-11T09:37:34.678Z,9.95
2022-10-11T09:40:38.617Z,9.65
2022-10-11T09:43:05.755Z,9.73
2022-10-11T09:45:32.190Z,10.10
2022-10-11T09:47:59.846Z,10.48
2022-10-11T09:50:29.567Z,9.82
2022-10-11T09:52:59.859Z,10.48
2022-10-11T09:56:01.173Z,9.73
2022-10-11T09:58:34.476Z,10.17
2022-10-11T10:01:08.070Z,10.57
2022-10-11T10:03:42.621Z,10.27
2022-10-11T10:06:28.338Z,10.23
2022-10-11T10:08:55.751Z,9.30
2022-10-11T10:11:22.313Z,10.10
2022-10-11T10:13:53.081Z,10.80
2022-10-11T10:16:33.292Z,10.90
2022-10-11T10:19:07.740Z,9.82
2022-10-11T10:21:42.467Z,10.38
2022-10-11T10:24:18.936Z,10.70
2022-10-11T10:27:20.841Z,10.52
2022-10-11T10:30:16.824Z,10.73
2022-10-11T10:32:52.151Z,11.10
2022-10-11T10:35:29.765Z,10.15
2022-10-11T10:38:07.022Z,10.93
2022-10-11T10:40:41.177Z,11.05
2022-10-11T10:43:15.536Z,11.15
2022-10-11T10:45:53.221Z,10.68
2022-10-11T10:49:18.775Z,11.05
2022-10-11T10:51:48.834Z,11.87
2022-10-11T10:54:34.945Z,11.90
2022-10-11T10:57:12.626Z,11.27
2022-10-11T10:59:44.756Z,10.50
2022-10-11T11:02:39.717Z,10.80
2022-10-11T11:05:34.046Z,10.17
2022-10-11T11:08:10.548Z,9.60
2022-10-11T11:10:42.011Z,10.10
2022-10-11T11:13:20.390Z,10.48
2022-10-11T11:15:51.170Z,10.38
2022-10-11T11:18:29.318Z,11.67
2022-10-11T11:21:21.415Z,10.50
2022-10-11T11:24:06.165Z,10.38
2022-10-11T11:26:49.907Z,11.18
2022-10-11T11:29:35.448Z,11.27
2022-10-11T11:32:18.328Z,10.17
2022-10-11T11:34:52.523Z,11.38
2022-10-11T11:37:23.330Z,11.18
2022-10-11T11:39:57.213Z,11.50
2022-10-11T11:42:30.117Z,11.98
2022-10-11T11:44:56.915Z,10.73
2022-10-11T11:47:37.174Z,10.60
2022-10-11T11:50:22.184Z,12.13
2022-10-11T11:52:53.107Z,12.02
2022-10-11T11:55:22.997Z,12.00
2022-10-11T11:57:55.335Z,12.27
2022-10-11T12:00:28.873Z,11.50
2022-10-11T12:03:04.346Z,12.38
2022-10-11T12:05:33.571Z,11.50
2022-10-11T12:08:03.673Z,12.20
2022-10-11T12:10:54.276Z,12.53
2022-10-11T12:13:34.670Z,12.02
2022-10-11T12:16:04.098Z,12.88
2022-10-11T12:18:31.328Z,12.60
2022-10-11T12:21:22.680Z,12.23
2022-10-11T12:23:55.133Z,12.50
2022-10-11T12:26:27.611Z,12.68
2022-10-11T12:29:47.948Z,11.75
2022-10-11T12:32:34.631Z,11.60
2022-10-11T12:35:32.229Z,11.32
2022-10-11T12:38:24.770Z,12.83
2022-10-11T12:40:57.309Z,11.65
2022-10-11T12:43:28.117Z,11.90
2022-10-11T12:45:54.571Z,10.70
2022-10-11T12:48:35.902Z,11.52
2022-10-11T12:51:54.921Z,11.80
2022-10-11T12:54:52.602Z,12.00
2022-10-11T12:57:39.644Z,11.35
2022-10-11T13:00:32.408Z,12.32
2022-10-11T13:03:01.656Z,12.00
2022-10-11T13:05:34.083Z,11.33
2022-10-11T13:08:04.244Z,12.57
2022-10-11T13:10:34.941Z,11.63
2022-10-11T13:13:04.415Z,12.20
2022-10-11T13:15:31.063Z,13.35
2022-10-11T13:18:01.038Z,12.77
2022-10-11T13:20:36.226Z,12.05
2022-10-11T13:23:21.599Z,12.57
2022-10-11T13:25:48.374Z,12.48
2022-10-11T13:28:15.662Z,12.45
2022-10-11T13:30:46.602Z,11.80
2022-10-11T13:33:23.570Z,12.10
2022-10-11T13:35:53.257Z,13.07
2022-10-11T13:38:31.391Z,12.93
2022-10-11T13:40:59.517Z,12.55
2022-10-11T13:43:28.024Z,12.57
2022-10-11T13:45:56.080Z,11.35
2022-10-11T13:48:24.482Z,12.95
2022-10-11T13:51:05.738Z,11.82
2022-10-11T13:53:32.211Z,11.43
2022-10-11T13:56:09.449Z,12.70
2022-10-11T13:58:40.439Z,12.52
2022-10-11T14:01:17.982Z,12.55
2022-10-11T14:03:47.307Z,12.13
2022-10-11T14:06:13.768Z,12.30
2022-10-11T14:08:44.236Z,12.93
2022-10-11T14:11:14.207Z,12.13
2022-10-11T14:13:49.676Z,12.23
2022-10-11T14:16:16.365Z,13.40
2022-10-11T14:18:50.019Z,11.80
2022-10-11T14:21:19.446Z,12.17
2022-10-11T14:24:10.651Z,12.82
2022-10-11T14:26:40.263Z,11.90
2022-10-11T14:29:36.499Z,12.10
2022-10-11T14:32:10.195Z,11.55
2022-10-11T14:34:36.850Z,11.30
2022-10-11T14:37:03.746Z,10.93
2022-10-11T14:39:31.830Z,11.98
2022-10-11T14:41:58.741Z,11.85
2022-10-11T14:44:25.452Z,10.98
2022-10-11T14:46:54.525Z,11.53
2022-10-11T14:49:27.098Z,12.77
2022-10-11T14:51:55.007Z,11.18
2022-10-11T14:54:24.169Z,11.20
2022-10-11T14:56:52.396Z,11.07
2022-10-11T14:59:21.261Z,11.47
2022-10-11T15:01:51.712Z,10.77
2022-10-11T15:04:18.948Z,11.23
2022-10-11T15:06:45.370Z,12.50
2022-10-11T15:09:11.997Z,11.93
2022-10-11T15:11:38.955Z,11.27
2022-10-11T15:14:06.221Z,12.23
2022-10-11T15:16:34.233Z,11.13
2022-10-11T15:19:00.736Z,11.25
2022-10-11T15:21:28.769Z,12.07
2022-10-11T15:23:55.743Z,11.57
2022-10-11T15:26:30.208Z,10.43
2022-10-11T15:28:57.628Z,11.02
2022-10-11T15:31:24.339Z,14.50
2022-10-11T15:33:50.846Z,12.95
2022-10-11T15:36:20.299Z,12.63
2022-10-11T15:38:47.293Z,14.45
2022-10-11T15:41:15.705Z,14.68
2022-10-11T15:43:43.547Z,13.60
2022-10-11T15:46:14.678Z,13.02
2022-10-11T15:48:41.102Z,13.87
2022-10-11T15:51:07.514Z,13.32
2022-10-11T15:53:33.929Z,13.52
2022-10-11T15:56:09.515Z,13.85
2022-10-11T15:58:38.748Z,12.80
2022-10-11T16:01:23.581Z,12.30
2022-10-11T16:03:50.857Z,12.55
2022-10-11T16:06:18.914Z,11.80
2022-10-11T16:08:45.365Z,12.77
2022-10-11T16:11:12.474Z,13.15
2022-10-11T16:13:39.422Z,12.43
2022-10-11T16:16:08.117Z,14.45
2022-10-11T16:18:35.838Z,13.95
2022-10-11T16:21:07.278Z,13.38
2022-10-11T16:23:34.049Z,14.00
2022-10-11T16:26:03.260Z,14.60
2022-10-11T16:28:30.054Z,13.38
2022-10-11T16:30:56.674Z,13.75
2022-10-11T16:33:23.399Z,14.32
2022-10-11T16:35:49.880Z,13.95
2022-10-11T16:38:16.383Z,14.27
2022-10-11T16:40:43.414Z,14.25
2022-10-11T16:43:10.221Z,14.65
2022-10-11T16:45:36.960Z,14.23
2022-10-11T16:48:03.786Z,14.18
2022-10-11T16:50:30.212Z,14.60
2022-10-11T16:52:56.718Z,15.02
2022-10-11T16:55:23.157Z,15.73
2022-10-11T16:57:49.574Z,15.07
2022-10-11T17:00:16.243Z,15.50
2022-10-11T17:02:42.730Z,15.10
2022-10-11T17:05:09.258Z,15.18
2022-10-11T17:07:35.736Z,15.10
2022-10-11T17:10:02.429Z,14.00
2022-10-11T17:12:28.930Z,14.68
2022-10-11T17:14:55.558Z,14.47
2022-10-11T17:17:22.100Z,15.25
2022-10-11T17:19:48.518Z,14.25
2022-10-11T17:22:18.059Z,14.68
2022-10-11T17:24:44.755Z,14.55
2022-10-11T17:27:11.327Z,14.77
2022-10-11T17:29:38.214Z,13.50
2022-10-11T17:32:04.866Z,13.70
2022-10-11T17:34:31.368Z,15.35
2022-10-11T17:36:57.774Z,13.38
2022-10-11T17:39:25.242Z,14.83
2022-10-11T17:41:52.039Z,13.88
2022-10-11T17:44:18.791Z,13.32
2022-10-11T17:46:46.142Z,14.13
2022-10-11T17:49:12.956Z,12.35
2022-10-11T17:51:40.241Z,14.20
2022-10-11T17:54:12.127Z,13.85
2022-10-11T17:56:39.909Z,12.50
2022-10-11T17:59:06.762Z,12.50
2022-10-11T18:01:33.256Z,11.85
2022-10-11T18:04:01.866Z,12.47
2022-10-11T18:06:31.021Z,12.27
2022-10-11T18:09:00.598Z,12.27
2022-10-11T18:11:27.176Z,11.95
2022-10-11T18:13:53.670Z,12.60
2022-10-11T18:16:22.209Z,11.93
2022-10-11T18:18:48.742Z,11.65
2022-10-11T18:21:16.125Z,12.18
2022-10-11T18:23:42.608Z,12.95
2022-10-11T18:26:20.549Z,12.02
2022-10-11T18:28:47.854Z,11.57
2022-10-11T18:31:18.073Z,13.00
2022-10-11T18:33:50.826Z,12.32
2022-10-11T18:36:20.185Z,12.07
2022-10-11T18:38:48.929Z,11.88
2022-10-11T18:41:17.537Z,12.53
2022-10-11T18:43:49.116Z,11.93
2022-10-11T18:46:15.569Z,11.32
2022-10-11T18:48:43.906Z,12.60
2022-10-11T18:51:14.837Z,11.63
2022-10-11T18:53:41.999Z,11.90
2022-10-11T18:56:10.333Z,11.55
2022-10-11T18:58:39.012Z,12.70
2022-10-11T19:01:15.858Z,12.45
2022-10-11T19:03:43.448Z,11.32
2022-10-11T19:06:18.510Z,11.77
2022-10-11T19:08:50.004Z,10.93
2022-10-11T19:11:17.733Z,11.55
2022-10-11T19:13:44.296Z,11.68
2022-10-11T19:16:13.375Z,11.90
2022-10-11T19:18:44.025Z,11.10
2022-10-11T19:21:12.363Z,11.73
2022-10-11T19:23:43.713Z,10.80
2022-10-11T19:26:21.469Z,10.65
2022-10-11T19:28:49.105Z,10.27
2022-10-11T19:31:19.049Z,11.03
2022-10-11T19:33:47.901Z,11.02
2022-10-11T19:36:14.562Z,10.25
2022-10-11T19:38:45.112Z,9.93
2022-10-11T19:41:12.195Z,10.20
2022-10-11T19:43:38.785Z,9.93
2022-10-11T19:46:11.695Z,10.55
2022-10-11T19:48:39.499Z,10.02
2022-10-11T19:51:17.337Z,10.35
2022-10-11T19:53:44.234Z,10.52
2022-10-11T19:56:13.570Z,10.60
2022-10-11T19:58:40.666Z,9.65
